sensor_id;sensor_type;location;lat;lon;timestamp;P1;durP1;ratioP1;P2;durP2;ratioP2
55559;SDS011;41414;53.250;6.514;2022-08-20T00:00:03;12.52;;;9.30;;
55559;SDS011;41414;53.250;6.514;2022-08-20T00:02:36;12.07;;;9.52;;
55559;SDS011;41414;53.250;6.514;2022-08-20T00:05:03;13.02;;;9.20;;
55559;SDS011;41414;53.250;6.514;2022-08-20T00:07:29;13.18;;;9.13;;
55559;SDS011;41414;53.250;6.514;2022-08-20T00:09:56;10.77;;;8.55;;
55559;SDS011;41414;53.250;6.514;2022-08-20T00:12:22;10.32;;;8.98;;
55559;SDS011;41414;53.250;6.514;2022-08-20T00:14:48;13.07;;;8.40;;
55559;SDS011;41414;53.250;6.514;2022-08-20T00:17:14;12.52;;;8.07;;
55559;SDS011;41414;53.250;6.514;2022-08-20T00:19:40;11.43;;;8.55;;
55559;SDS011;41414;53.250;6.514;2022-08-20T00:22:06;9.48;;;8.48;;
55559;SDS011;41414;53.250;6.514;2022-08-20T00:24:33;21.48;;;8.90;;
55559;SDS011;41414;53.250;6.514;2022-08-20T00:26:59;13.40;;;8.30;;
55559;SDS011;41414;53.250;6.514;2022-08-20T00:29:25;15.13;;;8.07;;
55559;SDS011;41414;53.250;6.514;2022-08-20T00:31:51;12.35;;;8.27;;
55559;SDS011;41414;53.250;6.514;2022-08-20T00:34:17;10.02;;;7.53;;
55559;SDS011;41414;53.250;6.514;2022-08-20T00:36:44;11.32;;;7.22;;
55559;SDS011;41414;53.250;6.514;2022-08-20T00:39:11;12.30;;;7.57;;
55559;SDS011;41414;53.250;6.514;2022-08-20T00:41:37;11.02;;;8.13;;
55559;SDS011;41414;53.250;6.514;2022-08-20T00:44:06;20.30;;;7.75;;
55559;SDS011;41414;53.250;6.514;2022-08-20T00:46:33;13.43;;;9.18;;
55559;SDS011;41414;53.250;6.514;2022-08-20T00:49:00;10.65;;;8.23;;
55559;SDS011;41414;53.250;6.514;2022-08-20T00:54:01;15.18;;;8.02;;
55559;SDS011;41414;53.250;6.514;2022-08-20T00:56:29;13.02;;;8.13;;
55559;SDS011;41414;53.250;6.514;2022-08-20T00:58:58;15.15;;;8.70;;
55559;SDS011;41414;53.250;6.514;2022-08-20T01:01:24;12.25;;;7.63;;
55559;SDS011;41414;53.250;6.514;2022-08-20T01:03:50;13.05;;;8.07;;
55559;SDS011;41414;53.250;6.514;2022-08-20T01:08:49;11.75;;;7.10;;
55559;SDS011;41414;53.250;6.514;2022-08-20T01:11:15;13.68;;;8.20;;
55559;SDS011;41414;53.250;6.514;2022-08-20T01:13:45;11.57;;;7.53;;
55559;SDS011;41414;53.250;6.514;2022-08-20T01:16:15;11.45;;;7.60;;
55559;SDS011;41414;53.250;6.514;2022-08-20T01:18:43;10.82;;;7.70;;
55559;SDS011;41414;53.250;6.514;2022-08-20T01:21:12;13.38;;;8.50;;
55559;SDS011;41414;53.250;6.514;2022-08-20T01:23:49;20.52;;;8.60;;
55559;SDS011;41414;53.250;6.514;2022-08-20T01:28:46;10.82;;;7.88;;
55559;SDS011;41414;53.250;6.514;2022-08-20T01:31:15;12.85;;;7.65;;
55559;SDS011;41414;53.250;6.514;2022-08-20T01:33:42;14.77;;;8.40;;
55559;SDS011;41414;53.250;6.514;2022-08-20T01:36:08;10.95;;;7.65;;
55559;SDS011;41414;53.250;6.514;2022-08-20T01:38:35;14.93;;;8.02;;
55559;SDS011;41414;53.250;6.514;2022-08-20T01:41:09;12.80;;;7.32;;
55559;SDS011;41414;53.250;6.514;2022-08-20T01:43:40;11.88;;;8.30;;
55559;SDS011;41414;53.250;6.514;2022-08-20T01:46:07;14.93;;;8.23;;
55559;SDS011;41414;53.250;6.514;2022-08-20T01:48:34;11.77;;;7.53;;
55559;SDS011;41414;53.250;6.514;2022-08-20T01:51:06;14.68;;;7.85;;
55559;SDS011;41414;53.250;6.514;2022-08-20T01:53:34;11.88;;;7.32;;
55559;SDS011;41414;53.250;6.514;2022-08-20T01:56:03;13.63;;;8.05;;
55559;SDS011;41414;53.250;6.514;2022-08-20T01:58:30;13.63;;;7.80;;
55559;SDS011;41414;53.250;6.514;2022-08-20T02:00:56;17.85;;;7.63;;
55559;SDS011;41414;53.250;6.514;2022-08-20T02:03:23;19.05;;;8.55;;
55559;SDS011;41414;53.250;6.514;2022-08-20T02:05:50;13.20;;;8.10;;
55559;SDS011;41414;53.250;6.514;2022-08-20T02:08:18;13.52;;;7.80;;
55559;SDS011;41414;53.250;6.514;2022-08-20T02:10:44;10.38;;;7.80;;
55559;SDS011;41414;53.250;6.514;2022-08-20T02:13:11;13.68;;;8.57;;
55559;SDS011;41414;53.250;6.514;2022-08-20T02:15:38;13.57;;;7.47;;
55559;SDS011;41414;53.250;6.514;2022-08-20T02:18:05;14.93;;;8.38;;
55559;SDS011;41414;53.250;6.514;2022-08-20T02:20:32;12.57;;;8.45;;
55559;SDS011;41414;53.250;6.514;2022-08-20T02:22:58;15.88;;;7.82;;
55559;SDS011;41414;53.250;6.514;2022-08-20T02:25:28;11.70;;;8.20;;
55559;SDS011;41414;53.250;6.514;2022-08-20T02:27:55;12.07;;;7.85;;
55559;SDS011;41414;53.250;6.514;2022-08-20T02:30:27;15.30;;;7.50;;
55559;SDS011;41414;53.250;6.514;2022-08-20T02:32:58;16.70;;;7.43;;
55559;SDS011;41414;53.250;6.514;2022-08-20T02:35:24;12.40;;;7.30;;
55559;SDS011;41414;53.250;6.514;2022-08-20T02:37:51;18.92;;;7.93;;
55559;SDS011;41414;53.250;6.514;2022-08-20T02:40:18;13.98;;;7.05;;
55559;SDS011;41414;53.250;6.514;2022-08-20T02:42:44;10.20;;;7.28;;
55559;SDS011;41414;53.250;6.514;2022-08-20T02:45:13;16.48;;;8.05;;
55559;SDS011;41414;53.250;6.514;2022-08-20T02:47:40;12.88;;;7.43;;
55559;SDS011;41414;53.250;6.514;2022-08-20T02:50:10;13.90;;;7.22;;
55559;SDS011;41414;53.250;6.514;2022-08-20T02:52:36;12.05;;;6.97;;
55559;SDS011;41414;53.250;6.514;2022-08-20T02:55:02;14.30;;;7.03;;
55559;SDS011;41414;53.250;6.514;2022-08-20T02:57:29;13.45;;;6.45;;
55559;SDS011;41414;53.250;6.514;2022-08-20T02:59:56;16.52;;;7.40;;
55559;SDS011;41414;53.250;6.514;2022-08-20T03:02:22;15.75;;;7.00;;
55559;SDS011;41414;53.250;6.514;2022-08-20T03:04:48;10.35;;;6.13;;
55559;SDS011;41414;53.250;6.514;2022-08-20T03:07:14;12.00;;;6.13;;
55559;SDS011;41414;53.250;6.514;2022-08-20T03:09:40;13.07;;;6.68;;
55559;SDS011;41414;53.250;6.514;2022-08-20T03:12:07;8.90;;;6.10;;
55559;SDS011;41414;53.250;6.514;2022-08-20T03:14:35;14.07;;;6.82;;
55559;SDS011;41414;53.250;6.514;2022-08-20T03:17:01;17.65;;;7.57;;
55559;SDS011;41414;53.250;6.514;2022-08-20T03:19:27;11.98;;;6.68;;
55559;SDS011;41414;53.250;6.514;2022-08-20T03:21:54;15.07;;;7.68;;
55559;SDS011;41414;53.250;6.514;2022-08-20T03:24:20;12.73;;;7.13;;
55559;SDS011;41414;53.250;6.514;2022-08-20T03:26:46;9.50;;;6.28;;
55559;SDS011;41414;53.250;6.514;2022-08-20T03:29:12;14.63;;;7.10;;
55559;SDS011;41414;53.250;6.514;2022-08-20T03:31:39;14.23;;;8.07;;
55559;SDS011;41414;53.250;6.514;2022-08-20T03:34:05;14.38;;;6.85;;
55559;SDS011;41414;53.250;6.514;2022-08-20T03:36:31;12.45;;;6.63;;
55559;SDS011;41414;53.250;6.514;2022-08-20T03:38:59;13.88;;;6.68;;
55559;SDS011;41414;53.250;6.514;2022-08-20T03:41:25;15.57;;;6.72;;
55559;SDS011;41414;53.250;6.514;2022-08-20T03:43:53;10.93;;;6.90;;
55559;SDS011;41414;53.250;6.514;2022-08-20T03:46:19;15.57;;;7.28;;
55559;SDS011;41414;53.250;6.514;2022-08-20T03:48:46;11.95;;;6.07;;
55559;SDS011;41414;53.250;6.514;2022-08-20T03:51:12;15.55;;;7.20;;
55559;SDS011;41414;53.250;6.514;2022-08-20T03:53:38;18.30;;;6.78;;
55559;SDS011;41414;53.250;6.514;2022-08-20T03:56:04;15.27;;;7.25;;
55559;SDS011;41414;53.250;6.514;2022-08-20T03:58:31;13.50;;;6.57;;
55559;SDS011;41414;53.250;6.514;2022-08-20T04:00:58;11.00;;;5.97;;
55559;SDS011;41414;53.250;6.514;2022-08-20T04:03:24;11.77;;;6.18;;
55559;SDS011;41414;53.250;6.514;2022-08-20T04:05:51;12.10;;;6.70;;
55559;SDS011;41414;53.250;6.514;2022-08-20T04:08:19;11.35;;;5.80;;
55559;SDS011;41414;53.250;6.514;2022-08-20T04:10:46;12.73;;;5.65;;
55559;SDS011;41414;53.250;6.514;2022-08-20T04:13:13;8.65;;;5.60;;
55559;SDS011;41414;53.250;6.514;2022-08-20T04:15:40;13.75;;;5.70;;
55559;SDS011;41414;53.250;6.514;2022-08-20T04:18:08;12.95;;;5.10;;
55559;SDS011;41414;53.250;6.514;2022-08-20T04:20:35;11.88;;;5.40;;
55559;SDS011;41414;53.250;6.514;2022-08-20T04:23:01;12.70;;;5.65;;
55559;SDS011;41414;53.250;6.514;2022-08-20T04:25:28;13.00;;;5.45;;
55559;SDS011;41414;53.250;6.514;2022-08-20T04:27:57;13.70;;;6.10;;
55559;SDS011;41414;53.250;6.514;2022-08-20T04:30:24;12.43;;;5.93;;
55559;SDS011;41414;53.250;6.514;2022-08-20T04:32:51;11.15;;;5.07;;
55559;SDS011;41414;53.250;6.514;2022-08-20T04:35:18;16.33;;;6.32;;
55559;SDS011;41414;53.250;6.514;2022-08-20T04:37:45;20.33;;;6.00;;
55559;SDS011;41414;53.250;6.514;2022-08-20T04:40:13;18.73;;;5.35;;
55559;SDS011;41414;53.250;6.514;2022-08-20T04:42:58;8.52;;;4.57;;
55559;SDS011;41414;53.250;6.514;2022-08-20T04:45:24;9.05;;;5.28;;
55559;SDS011;41414;53.250;6.514;2022-08-20T04:47:50;15.05;;;5.50;;
55559;SDS011;41414;53.250;6.514;2022-08-20T04:50:17;11.85;;;5.03;;
55559;SDS011;41414;53.250;6.514;2022-08-20T04:52:44;11.98;;;5.03;;
55559;SDS011;41414;53.250;6.514;2022-08-20T04:55:12;14.25;;;5.60;;
55559;SDS011;41414;53.250;6.514;2022-08-20T04:57:40;15.88;;;5.35;;
55559;SDS011;41414;53.250;6.514;2022-08-20T05:00:07;10.63;;;5.22;;
55559;SDS011;41414;53.250;6.514;2022-08-20T05:02:35;16.27;;;6.38;;
55559;SDS011;41414;53.250;6.514;2022-08-20T05:05:02;10.15;;;6.05;;
55559;SDS011;41414;53.250;6.514;2022-08-20T05:07:29;11.70;;;5.30;;
55559;SDS011;41414;53.250;6.514;2022-08-20T05:09:55;13.10;;;6.05;;
55559;SDS011;41414;53.250;6.514;2022-08-20T05:12:21;6.95;;;4.80;;
55559;SDS011;41414;53.250;6.514;2022-08-20T05:14:47;10.07;;;5.25;;
55559;SDS011;41414;53.250;6.514;2022-08-20T05:17:15;10.13;;;5.28;;
55559;SDS011;41414;53.250;6.514;2022-08-20T05:19:41;12.15;;;5.07;;
55559;SDS011;41414;53.250;6.514;2022-08-20T05:22:08;13.70;;;5.40;;
55559;SDS011;41414;53.250;6.514;2022-08-20T05:24:34;12.32;;;5.32;;
55559;SDS011;41414;53.250;6.514;2022-08-20T05:27:00;13.85;;;5.03;;
55559;SDS011;41414;53.250;6.514;2022-08-20T05:29:26;12.95;;;6.15;;
55559;SDS011;41414;53.250;6.514;2022-08-20T05:31:53;10.07;;;5.63;;
55559;SDS011;41414;53.250;6.514;2022-08-20T05:34:20;10.32;;;5.25;;
55559;SDS011;41414;53.250;6.514;2022-08-20T05:36:48;9.13;;;4.55;;
55559;SDS011;41414;53.250;6.514;2022-08-20T05:39:14;9.95;;;5.43;;
55559;SDS011;41414;53.250;6.514;2022-08-20T05:41:41;11.68;;;5.80;;
55559;SDS011;41414;53.250;6.514;2022-08-20T05:44:07;10.35;;;5.03;;
55559;SDS011;41414;53.250;6.514;2022-08-20T05:46:35;8.40;;;4.38;;
55559;SDS011;41414;53.250;6.514;2022-08-20T05:49:04;13.00;;;5.40;;
55559;SDS011;41414;53.250;6.514;2022-08-20T05:51:30;10.52;;;4.82;;
55559;SDS011;41414;53.250;6.514;2022-08-20T05:53:57;8.82;;;4.80;;
55559;SDS011;41414;53.250;6.514;2022-08-20T05:56:23;11.25;;;5.15;;
55559;SDS011;41414;53.250;6.514;2022-08-20T05:58:49;14.35;;;5.28;;
55559;SDS011;41414;53.250;6.514;2022-08-20T06:01:15;8.38;;;4.97;;
55559;SDS011;41414;53.250;6.514;2022-08-20T06:03:41;8.57;;;4.97;;
55559;SDS011;41414;53.250;6.514;2022-08-20T06:06:26;11.43;;;5.28;;
55559;SDS011;41414;53.250;6.514;2022-08-20T06:08:52;10.55;;;4.90;;
55559;SDS011;41414;53.250;6.514;2022-08-20T06:11:19;9.73;;;4.88;;
55559;SDS011;41414;53.250;6.514;2022-08-20T06:13:45;16.25;;;5.68;;
55559;SDS011;41414;53.250;6.514;2022-08-20T06:16:11;8.75;;;5.00;;
55559;SDS011;41414;53.250;6.514;2022-08-20T06:18:38;12.68;;;5.15;;
55559;SDS011;41414;53.250;6.514;2022-08-20T06:21:04;8.75;;;4.18;;
55559;SDS011;41414;53.250;6.514;2022-08-20T06:23:30;9.70;;;4.80;;
55559;SDS011;41414;53.250;6.514;2022-08-20T06:25:56;12.35;;;5.25;;
55559;SDS011;41414;53.250;6.514;2022-08-20T06:28:22;13.20;;;3.90;;
55559;SDS011;41414;53.250;6.514;2022-08-20T06:30:49;14.30;;;3.80;;
55559;SDS011;41414;53.250;6.514;2022-08-20T06:33:15;11.35;;;4.18;;
55559;SDS011;41414;53.250;6.514;2022-08-20T06:35:41;10.10;;;3.35;;
55559;SDS011;41414;53.250;6.514;2022-08-20T06:38:09;12.27;;;3.97;;
55559;SDS011;41414;53.250;6.514;2022-08-20T06:40:37;9.68;;;3.92;;
55559;SDS011;41414;53.250;6.514;2022-08-20T06:43:03;9.52;;;4.70;;
55559;SDS011;41414;53.250;6.514;2022-08-20T06:45:34;12.13;;;3.83;;
55559;SDS011;41414;53.250;6.514;2022-08-20T06:48:08;7.03;;;3.53;;
55559;SDS011;41414;53.250;6.514;2022-08-20T06:50:37;9.38;;;3.60;;
55559;SDS011;41414;53.250;6.514;2022-08-20T06:53:05;8.55;;;3.47;;
55559;SDS011;41414;53.250;6.514;2022-08-20T06:55:33;14.45;;;3.75;;
55559;SDS011;41414;53.250;6.514;2022-08-20T06:58:01;5.75;;;2.63;;
55559;SDS011;41414;53.250;6.514;2022-08-20T07:00:28;14.13;;;3.17;;
55559;SDS011;41414;53.250;6.514;2022-08-20T07:02:55;8.95;;;3.25;;
55559;SDS011;41414;53.250;6.514;2022-08-20T07:05:23;10.73;;;2.50;;
55559;SDS011;41414;53.250;6.514;2022-08-20T07:07:50;8.93;;;2.72;;
55559;SDS011;41414;53.250;6.514;2022-08-20T07:10:17;9.68;;;2.88;;
55559;SDS011;41414;53.250;6.514;2022-08-20T07:12:43;7.40;;;2.42;;
55559;SDS011;41414;53.250;6.514;2022-08-20T07:15:11;12.43;;;2.53;;
55559;SDS011;41414;53.250;6.514;2022-08-20T07:17:37;7.85;;;2.35;;
55559;SDS011;41414;53.250;6.514;2022-08-20T07:20:05;6.25;;;2.75;;
55559;SDS011;41414;53.250;6.514;2022-08-20T07:22:31;7.97;;;2.58;;
55559;SDS011;41414;53.250;6.514;2022-08-20T07:25:02;9.90;;;3.10;;
55559;SDS011;41414;53.250;6.514;2022-08-20T07:27:28;5.45;;;1.63;;
55559;SDS011;41414;53.250;6.514;2022-08-20T07:29:55;9.07;;;1.83;;
55559;SDS011;41414;53.250;6.514;2022-08-20T07:32:39;4.95;;;1.95;;
55559;SDS011;41414;53.250;6.514;2022-08-20T07:35:07;7.45;;;2.05;;
55559;SDS011;41414;53.250;6.514;2022-08-20T07:37:42;6.07;;;1.52;;
55559;SDS011;41414;53.250;6.514;2022-08-20T07:40:11;4.80;;;1.63;;
55559;SDS011;41414;53.250;6.514;2022-08-20T07:42:38;5.72;;;1.60;;
55559;SDS011;41414;53.250;6.514;2022-08-20T07:45:06;6.28;;;1.77;;
55559;SDS011;41414;53.250;6.514;2022-08-20T07:47:35;9.48;;;1.77;;
55559;SDS011;41414;53.250;6.514;2022-08-20T07:50:01;6.32;;;1.40;;
55559;SDS011;41414;53.250;6.514;2022-08-20T07:52:28;8.30;;;1.60;;
55559;SDS011;41414;53.250;6.514;2022-08-20T07:54:54;5.90;;;1.60;;
55559;SDS011;41414;53.250;6.514;2022-08-20T07:57:20;7.90;;;1.85;;
55559;SDS011;41414;53.250;6.514;2022-08-20T07:59:47;9.38;;;2.22;;
55559;SDS011;41414;53.250;6.514;2022-08-20T08:02:13;5.88;;;1.60;;
55559;SDS011;41414;53.250;6.514;2022-08-20T08:04:39;7.38;;;1.40;;
55559;SDS011;41414;53.250;6.514;2022-08-20T08:07:05;12.00;;;2.13;;
55559;SDS011;41414;53.250;6.514;2022-08-20T08:09:32;7.03;;;1.52;;
55559;SDS011;41414;53.250;6.514;2022-08-20T08:11:58;7.82;;;1.52;;
55559;SDS011;41414;53.250;6.514;2022-08-20T08:14:28;5.10;;;1.58;;
55559;SDS011;41414;53.250;6.514;2022-08-20T08:16:56;5.43;;;1.45;;
55559;SDS011;41414;53.250;6.514;2022-08-20T08:19:23;8.63;;;1.60;;
55559;SDS011;41414;53.250;6.514;2022-08-20T08:21:50;5.40;;;1.60;;
55559;SDS011;41414;53.250;6.514;2022-08-20T08:24:16;7.03;;;1.75;;
55559;SDS011;41414;53.250;6.514;2022-08-20T08:26:43;5.50;;;1.80;;
55559;SDS011;41414;53.250;6.514;2022-08-20T08:29:09;10.00;;;2.05;;
55559;SDS011;41414;53.250;6.514;2022-08-20T08:31:36;6.05;;;1.35;;
55559;SDS011;41414;53.250;6.514;2022-08-20T08:34:02;4.70;;;1.80;;
55559;SDS011;41414;53.250;6.514;2022-08-20T08:36:28;5.20;;;1.40;;
55559;SDS011;41414;53.250;6.514;2022-08-20T08:38:54;3.80;;;1.50;;
55559;SDS011;41414;53.250;6.514;2022-08-20T08:44:14;4.43;;;1.58;;
55559;SDS011;41414;53.250;6.514;2022-08-20T08:46:46;6.97;;;1.33;;
55559;SDS011;41414;53.250;6.514;2022-08-20T08:49:15;5.30;;;1.33;;
55559;SDS011;41414;53.250;6.514;2022-08-20T08:51:44;7.10;;;1.58;;
55559;SDS011;41414;53.250;6.514;2022-08-20T08:54:13;10.30;;;1.83;;
55559;SDS011;41414;53.250;6.514;2022-08-20T08:56:41;7.07;;;1.48;;
55559;SDS011;41414;53.250;6.514;2022-08-20T08:59:08;4.88;;;1.10;;
55559;SDS011;41414;53.250;6.514;2022-08-20T09:01:39;8.00;;;2.17;;
55559;SDS011;41414;53.250;6.514;2022-08-20T09:04:07;5.95;;;1.60;;
55559;SDS011;41414;53.250;6.514;2022-08-20T09:06:34;14.95;;;1.48;;
55559;SDS011;41414;53.250;6.514;2022-08-20T09:09:02;7.30;;;1.58;;
55559;SDS011;41414;53.250;6.514;2022-08-20T09:11:29;4.45;;;1.20;;
55559;SDS011;41414;53.250;6.514;2022-08-20T09:13:55;7.78;;;1.65;;
55559;SDS011;41414;53.250;6.514;2022-08-20T09:16:23;4.88;;;1.35;;
55559;SDS011;41414;53.250;6.514;2022-08-20T09:18:50;5.03;;;1.52;;
55559;SDS011;41414;53.250;6.514;2022-08-20T09:21:16;5.00;;;1.55;;
55559;SDS011;41414;53.250;6.514;2022-08-20T09:23:43;7.82;;;1.65;;
55559;SDS011;41414;53.250;6.514;2022-08-20T09:26:10;6.18;;;1.48;;
55559;SDS011;41414;53.250;6.514;2022-08-20T09:28:36;4.18;;;1.45;;
55559;SDS011;41414;53.250;6.514;2022-08-20T09:31:02;5.60;;;1.65;;
55559;SDS011;41414;53.250;6.514;2022-08-20T09:33:28;5.43;;;1.40;;
55559;SDS011;41414;53.250;6.514;2022-08-20T09:35:55;5.95;;;1.90;;
55559;SDS011;41414;53.250;6.514;2022-08-20T09:38:21;9.45;;;2.10;;
55559;SDS011;41414;53.250;6.514;2022-08-20T09:40:47;8.80;;;1.80;;
55559;SDS011;41414;53.250;6.514;2022-08-20T09:43:13;8.35;;;1.98;;
55559;SDS011;41414;53.250;6.514;2022-08-20T09:45:40;7.50;;;1.48;;
55559;SDS011;41414;53.250;6.514;2022-08-20T09:48:06;5.13;;;1.75;;
55559;SDS011;41414;53.250;6.514;2022-08-20T09:50:32;7.25;;;2.03;;
55559;SDS011;41414;53.250;6.514;2022-08-20T09:53:00;7.53;;;1.60;;
55559;SDS011;41414;53.250;6.514;2022-08-20T09:55:34;7.75;;;1.52;;
55559;SDS011;41414;53.250;6.514;2022-08-20T09:58:04;6.60;;;2.00;;
55559;SDS011;41414;53.250;6.514;2022-08-20T10:00:31;6.47;;;1.70;;
55559;SDS011;41414;53.250;6.514;2022-08-20T10:02:57;11.63;;;1.75;;
55559;SDS011;41414;53.250;6.514;2022-08-20T10:05:24;7.28;;;2.10;;
55559;SDS011;41414;53.250;6.514;2022-08-20T10:07:51;6.22;;;1.75;;
55559;SDS011;41414;53.250;6.514;2022-08-20T10:10:17;10.43;;;1.65;;
55559;SDS011;41414;53.250;6.514;2022-08-20T10:12:43;6.28;;;1.60;;
55559;SDS011;41414;53.250;6.514;2022-08-20T10:15:10;6.85;;;1.88;;
55559;SDS011;41414;53.250;6.514;2022-08-20T10:17:38;5.90;;;1.90;;
55559;SDS011;41414;53.250;6.514;2022-08-20T10:20:05;5.55;;;2.05;;
55559;SDS011;41414;53.250;6.514;2022-08-20T10:22:32;4.65;;;1.80;;
55559;SDS011;41414;53.250;6.514;2022-08-20T10:24:58;4.07;;;1.65;;
55559;SDS011;41414;53.250;6.514;2022-08-20T10:27:25;4.57;;;1.65;;
55559;SDS011;41414;53.250;6.514;2022-08-20T10:29:51;4.63;;;1.85;;
55559;SDS011;41414;53.250;6.514;2022-08-20T10:32:17;7.20;;;1.85;;
55559;SDS011;41414;53.250;6.514;2022-08-20T10:34:44;4.95;;;1.85;;
55559;SDS011;41414;53.250;6.514;2022-08-20T10:37:14;5.53;;;2.17;;
55559;SDS011;41414;53.250;6.514;2022-08-20T10:39:41;6.67;;;2.20;;
55559;SDS011;41414;53.250;6.514;2022-08-20T10:42:07;8.30;;;2.13;;
55559;SDS011;41414;53.250;6.514;2022-08-20T10:44:34;10.27;;;2.63;;
55559;SDS011;41414;53.250;6.514;2022-08-20T10:47:14;8.90;;;2.58;;
55559;SDS011;41414;53.250;6.514;2022-08-20T10:49:40;6.97;;;2.25;;
55559;SDS011;41414;53.250;6.514;2022-08-20T10:52:06;9.32;;;2.35;;
55559;SDS011;41414;53.250;6.514;2022-08-20T10:54:32;7.75;;;2.20;;
55559;SDS011;41414;53.250;6.514;2022-08-20T10:57:00;6.65;;;2.47;;
55559;SDS011;41414;53.250;6.514;2022-08-20T10:59:26;6.40;;;2.40;;
55559;SDS011;41414;53.250;6.514;2022-08-20T11:01:52;9.07;;;2.08;;
55559;SDS011;41414;53.250;6.514;2022-08-20T11:04:19;7.82;;;2.15;;
55559;SDS011;41414;53.250;6.514;2022-08-20T11:06:45;10.98;;;2.53;;
55559;SDS011;41414;53.250;6.514;2022-08-20T11:09:11;5.50;;;1.88;;
55559;SDS011;41414;53.250;6.514;2022-08-20T11:11:37;6.72;;;2.20;;
55559;SDS011;41414;53.250;6.514;2022-08-20T11:14:03;8.68;;;2.05;;
55559;SDS011;41414;53.250;6.514;2022-08-20T11:16:30;6.95;;;2.60;;
55559;SDS011;41414;53.250;6.514;2022-08-20T11:18:56;8.25;;;2.20;;
55559;SDS011;41414;53.250;6.514;2022-08-20T11:21:22;7.30;;;2.63;;
55559;SDS011;41414;53.250;6.514;2022-08-20T11:23:48;5.90;;;1.73;;
55559;SDS011;41414;53.250;6.514;2022-08-20T11:26:17;8.73;;;2.25;;
55559;SDS011;41414;53.250;6.514;2022-08-20T11:28:44;6.30;;;2.10;;
55559;SDS011;41414;53.250;6.514;2022-08-20T11:31:11;6.68;;;1.98;;
55559;SDS011;41414;53.250;6.514;2022-08-20T11:33:37;8.02;;;2.45;;
55559;SDS011;41414;53.250;6.514;2022-08-20T11:36:03;6.68;;;2.30;;
55559;SDS011;41414;53.250;6.514;2022-08-20T11:38:29;12.18;;;2.47;;
55559;SDS011;41414;53.250;6.514;2022-08-20T11:40:56;8.05;;;2.22;;
55559;SDS011;41414;53.250;6.514;2022-08-20T11:43:22;7.40;;;2.22;;
55559;SDS011;41414;53.250;6.514;2022-08-20T11:45:49;6.25;;;2.47;;
55559;SDS011;41414;53.250;6.514;2022-08-20T11:48:15;8.80;;;2.10;;
55559;SDS011;41414;53.250;6.514;2022-08-20T11:50:42;9.68;;;1.85;;
55559;SDS011;41414;53.250;6.514;2022-08-20T11:53:08;6.15;;;2.22;;
55559;SDS011;41414;53.250;6.514;2022-08-20T11:55:35;5.95;;;1.52;;
55559;SDS011;41414;53.250;6.514;2022-08-20T11:58:01;4.90;;;1.85;;
55559;SDS011;41414;53.250;6.514;2022-08-20T12:00:28;6.38;;;1.75;;
55559;SDS011;41414;53.250;6.514;2022-08-20T12:02:55;7.25;;;2.10;;
55559;SDS011;41414;53.250;6.514;2022-08-20T12:05:21;6.25;;;1.58;;
55559;SDS011;41414;53.250;6.514;2022-08-20T12:07:47;8.35;;;2.28;;
55559;SDS011;41414;53.250;6.514;2022-08-20T12:10:14;5.28;;;2.25;;
55559;SDS011;41414;53.250;6.514;2022-08-20T12:12:40;7.57;;;1.90;;
55559;SDS011;41414;53.250;6.514;2022-08-20T12:15:07;8.48;;;2.47;;
55559;SDS011;41414;53.250;6.514;2022-08-20T12:17:33;7.25;;;2.10;;
55559;SDS011;41414;53.250;6.514;2022-08-20T12:20:00;7.90;;;1.98;;
55559;SDS011;41414;53.250;6.514;2022-08-20T12:22:27;6.32;;;2.03;;
55559;SDS011;41414;53.250;6.514;2022-08-20T12:24:53;7.13;;;2.17;;
55559;SDS011;41414;53.250;6.514;2022-08-20T12:27:21;10.73;;;2.28;;
55559;SDS011;41414;53.250;6.514;2022-08-20T12:29:48;7.85;;;2.13;;
55559;SDS011;41414;53.250;6.514;2022-08-20T12:32:17;10.43;;;2.10;;
55559;SDS011;41414;53.250;6.514;2022-08-20T12:34:43;6.43;;;2.30;;
55559;SDS011;41414;53.250;6.514;2022-08-20T12:37:11;5.15;;;2.10;;
55559;SDS011;41414;53.250;6.514;2022-08-20T12:39:38;9.40;;;2.80;;
55559;SDS011;41414;53.250;6.514;2022-08-20T12:42:05;7.65;;;2.35;;
55559;SDS011;41414;53.250;6.514;2022-08-20T12:44:32;5.30;;;2.08;;
55559;SDS011;41414;53.250;6.514;2022-08-20T12:49:31;8.93;;;2.20;;
55559;SDS011;41414;53.250;6.514;2022-08-20T12:51:57;6.45;;;2.42;;
55559;SDS011;41414;53.250;6.514;2022-08-20T12:54:23;7.30;;;2.15;;
55559;SDS011;41414;53.250;6.514;2022-08-20T12:56:49;5.90;;;2.30;;
55559;SDS011;41414;53.250;6.514;2022-08-20T12:59:16;11.93;;;2.17;;
55559;SDS011;41414;53.250;6.514;2022-08-20T13:01:42;8.63;;;2.70;;
55559;SDS011;41414;53.250;6.514;2022-08-20T13:04:09;6.55;;;2.30;;
55559;SDS011;41414;53.250;6.514;2022-08-20T13:06:35;6.30;;;2.58;;
55559;SDS011;41414;53.250;6.514;2022-08-20T13:09:01;13.43;;;2.70;;
55559;SDS011;41414;53.250;6.514;2022-08-20T13:11:27;9.73;;;2.70;;
55559;SDS011;41414;53.250;6.514;2022-08-20T13:13:53;5.88;;;2.20;;
55559;SDS011;41414;53.250;6.514;2022-08-20T13:16:19;6.85;;;2.65;;
55559;SDS011;41414;53.250;6.514;2022-08-20T13:18:45;5.47;;;2.38;;
55559;SDS011;41414;53.250;6.514;2022-08-20T13:21:12;6.03;;;2.10;;
55559;SDS011;41414;53.250;6.514;2022-08-20T13:23:38;8.57;;;2.17;;
55559;SDS011;41414;53.250;6.514;2022-08-20T13:26:04;6.03;;;2.30;;
55559;SDS011;41414;53.250;6.514;2022-08-20T13:28:30;14.40;;;2.22;;
55559;SDS011;41414;53.250;6.514;2022-08-20T13:30:56;6.30;;;2.60;;
55559;SDS011;41414;53.250;6.514;2022-08-20T13:33:23;7.75;;;2.03;;
55559;SDS011;41414;53.250;6.514;2022-08-20T13:35:50;5.13;;;2.45;;
55559;SDS011;41414;53.250;6.514;2022-08-20T13:38:17;6.15;;;2.25;;
55559;SDS011;41414;53.250;6.514;2022-08-20T13:40:43;9.95;;;2.60;;
55559;SDS011;41414;53.250;6.514;2022-08-20T13:43:09;6.25;;;2.83;;
55559;SDS011;41414;53.250;6.514;2022-08-20T13:45:36;6.15;;;2.28;;
55559;SDS011;41414;53.250;6.514;2022-08-20T13:48:02;7.18;;;2.83;;
55559;SDS011;41414;53.250;6.514;2022-08-20T13:50:28;6.82;;;2.58;;
55559;SDS011;41414;53.250;6.514;2022-08-20T13:52:55;10.60;;;2.83;;
55559;SDS011;41414;53.250;6.514;2022-08-20T13:55:22;6.80;;;2.40;;
55559;SDS011;41414;53.250;6.514;2022-08-20T13:57:49;9.95;;;2.65;;
55559;SDS011;41414;53.250;6.514;2022-08-20T14:00:17;6.65;;;2.33;;
55559;SDS011;41414;53.250;6.514;2022-08-20T14:02:44;7.55;;;2.17;;
55559;SDS011;41414;53.250;6.514;2022-08-20T14:05:10;5.43;;;2.33;;
55559;SDS011;41414;53.250;6.514;2022-08-20T14:07:37;6.82;;;2.40;;
55559;SDS011;41414;53.250;6.514;2022-08-20T14:10:05;5.60;;;2.47;;
55559;SDS011;41414;53.250;6.514;2022-08-20T14:12:32;10.23;;;2.80;;
55559;SDS011;41414;53.250;6.514;2022-08-20T14:14:58;6.25;;;2.00;;
55559;SDS011;41414;53.250;6.514;2022-08-20T14:17:25;12.90;;;2.45;;
55559;SDS011;41414;53.250;6.514;2022-08-20T14:19:54;7.68;;;2.55;;
55559;SDS011;41414;53.250;6.514;2022-08-20T14:22:21;7.22;;;2.30;;
55559;SDS011;41414;53.250;6.514;2022-08-20T14:24:47;10.00;;;2.45;;
55559;SDS011;41414;53.250;6.514;2022-08-20T14:27:15;7.25;;;2.33;;
55559;SDS011;41414;53.250;6.514;2022-08-20T14:29:42;5.93;;;1.80;;
55559;SDS011;41414;53.250;6.514;2022-08-20T14:32:09;7.22;;;1.73;;
55559;SDS011;41414;53.250;6.514;2022-08-20T14:34:35;8.38;;;2.63;;
55559;SDS011;41414;53.250;6.514;2022-08-20T14:37:15;7.57;;;1.80;;
55559;SDS011;41414;53.250;6.514;2022-08-20T14:39:43;8.27;;;2.30;;
55559;SDS011;41414;53.250;6.514;2022-08-20T14:42:09;6.32;;;2.05;;
55559;SDS011;41414;53.250;6.514;2022-08-20T14:44:36;10.05;;;2.17;;
55559;SDS011;41414;53.250;6.514;2022-08-20T14:47:09;5.88;;;2.05;;
55559;SDS011;41414;53.250;6.514;2022-08-20T14:49:36;10.02;;;1.98;;
55559;SDS011;41414;53.250;6.514;2022-08-20T14:52:02;7.47;;;2.30;;